createdAt,value
2022-07-30T00:00:02.232Z,52.30
2022-07-30T00:00:54.066Z,52.30
2022-07-30T00:01:45.821Z,52.40
2022-07-30T00:02:37.659Z,52.30
2022-07-30T00:03:29.652Z,52.30
2022-07-30T00:04:21.363Z,52.40
2022-07-30T00:05:13.215Z,52.50
2022-07-30T00:06:05.059Z,52.40
2022-07-30T00:06:57.209Z,52.40
2022-07-30T00:07:48.752Z,52.50
2022-07-30T00:08:40.526Z,52.50
2022-07-30T00:09:33.315Z,52.40
2022-07-30T00:10:24.327Z,52.50
2022-07-30T00:11:16.146Z,52.50
2022-07-30T00:12:08.015Z,52.60
2022-07-30T00:12:59.847Z,52.50
2022-07-30T00:13:51.710Z,52.50
2022-07-30T00:14:43.548Z,52.50
2022-07-30T00:15:35.403Z,52.60
2022-07-30T00:16:27.290Z,52.60
2022-07-30T00:17:19.093Z,52.70
2022-07-30T00:18:11.951Z,52.70
2022-07-30T00:19:02.784Z,52.70
2022-07-30T00:19:54.625Z,52.70
2022-07-30T00:20:46.480Z,52.70
2022-07-30T00:21:39.059Z,52.60
2022-07-30T00:22:30.179Z,52.50
2022-07-30T00:23:22.009Z,52.50
2022-07-30T00:24:13.904Z,52.50
2022-07-30T00:25:05.703Z,52.50
2022-07-30T00:25:57.569Z,52.50
2022-07-30T00:26:49.404Z,52.50
2022-07-30T00:27:41.261Z,52.60
2022-07-30T00:28:33.073Z,52.60
2022-07-30T00:29:24.954Z,52.70
2022-07-30T00:30:16.785Z,52.70
2022-07-30T00:31:08.753Z,52.70
2022-07-30T00:32:00.517Z,52.60
2022-07-30T00:32:52.362Z,52.60
2022-07-30T00:33:44.184Z,52.60
2022-07-30T00:34:36.042Z,52.50
2022-07-30T00:35:27.892Z,52.50
2022-07-30T00:36:19.741Z,52.50
2022-07-30T00:37:11.569Z,52.40
2022-07-30T00:38:03.432Z,52.40
2022-07-30T00:38:55.281Z,52.40
2022-07-30T00:39:47.130Z,52.40
2022-07-30T00:40:38.978Z,52.40
2022-07-30T00:41:30.753Z,52.40
2022-07-30T00:42:22.659Z,52.50
2022-07-30T00:43:14.515Z,52.50
2022-07-30T00:44:06.360Z,52.50
2022-07-30T00:44:58.217Z,52.50
2022-07-30T00:45:50.137Z,52.50
2022-07-30T00:46:41.900Z,52.60
2022-07-30T00:47:33.742Z,52.60
2022-07-30T00:48:25.602Z,52.60
2022-07-30T00:49:17.491Z,52.70
2022-07-30T00:50:09.294Z,52.70
2022-07-30T00:51:01.078Z,52.70
2022-07-30T00:51:52.994Z,52.70
2022-07-30T00:52:44.818Z,52.70
2022-07-30T00:53:36.677Z,52.60
2022-07-30T00:54:28.505Z,52.60
2022-07-30T00:55:20.383Z,52.60
2022-07-30T00:56:12.203Z,52.60
2022-07-30T00:57:04.055Z,52.60
2022-07-30T00:57:55.891Z,52.60
2022-07-30T00:58:47.770Z,52.60
2022-07-30T00:59:39.583Z,52.60
2022-07-30T01:00:31.445Z,52.60
2022-07-30T01:01:23.327Z,52.60
2022-07-30T01:02:15.207Z,52.60
2022-07-30T01:03:06.968Z,52.60
2022-07-30T01:03:58.817Z,52.70
2022-07-30T01:04:50.595Z,52.60
2022-07-30T01:05:42.512Z,52.60
2022-07-30T01:06:34.353Z,52.60
2022-07-30T01:07:27.263Z,52.50
2022-07-30T01:08:18.037Z,52.50
2022-07-30T01:09:09.903Z,52.50
2022-07-30T01:10:01.664Z,52.50
2022-07-30T01:10:53.585Z,52.50
2022-07-30T01:11:45.417Z,52.50
2022-07-30T01:12:37.270Z,52.60
2022-07-30T01:13:29.095Z,52.60
2022-07-30T01:14:20.883Z,52.60
2022-07-30T01:15:12.789Z,52.60
2022-07-30T01:16:04.691Z,52.70
2022-07-30T01:16:56.595Z,52.70
2022-07-30T01:17:49.139Z,52.70
2022-07-30T01:18:40.156Z,52.70
2022-07-30T01:19:32.014Z,52.70
2022-07-30T01:20:23.836Z,52.70
2022-07-30T01:21:15.706Z,52.70
2022-07-30T01:22:07.518Z,52.70
2022-07-30T01:22:59.383Z,52.70
2022-07-30T01:23:51.151Z,52.70
2022-07-30T01:24:43.063Z,52.70
2022-07-30T01:25:34.891Z,52.70
2022-07-30T01:26:26.742Z,52.70
2022-07-30T01:27:20.026Z,52.70
2022-07-30T01:28:10.457Z,52.70
2022-07-30T01:29:02.259Z,52.70
2022-07-30T01:29:54.118Z,52.60
2022-07-30T01:30:45.941Z,52.70
2022-07-30T01:31:37.831Z,52.70
2022-07-30T01:32:29.611Z,52.70
2022-07-30T01:33:21.485Z,52.70
2022-07-30T01:34:13.295Z,52.70
2022-07-30T01:35:05.157Z,52.70
2022-07-30T01:35:56.981Z,52.70
2022-07-30T01:36:48.835Z,52.80
2022-07-30T01:37:40.593Z,52.70
2022-07-30T01:38:34.869Z,52.70
2022-07-30T01:39:24.351Z,52.70
2022-07-30T01:40:16.195Z,52.70
2022-07-30T01:41:08.021Z,52.70
2022-07-30T01:41:59.880Z,52.70
2022-07-30T01:42:51.700Z,52.70
2022-07-30T01:43:43.554Z,52.60
2022-07-30T01:44:35.374Z,52.60
2022-07-30T01:45:27.268Z,52.70
2022-07-30T01:46:19.131Z,52.60
2022-07-30T01:47:10.829Z,52.60
2022-07-30T01:48:02.747Z,52.60
2022-07-30T01:48:54.648Z,52.60
2022-07-30T01:49:46.425Z,52.60
2022-07-30T01:50:38.269Z,52.60
2022-07-30T01:51:33.337Z,52.60
2022-07-30T01:52:21.948Z,52.60
2022-07-30T01:53:13.778Z,52.50
2022-07-30T01:54:05.633Z,52.70
2022-07-30T01:54:57.455Z,52.70
2022-07-30T01:55:49.303Z,52.60
2022-07-30T01:56:41.064Z,52.70
2022-07-30T01:57:32.980Z,52.70
2022-07-30T01:58:24.798Z,52.70
2022-07-30T01:59:16.668Z,52.70
2022-07-30T02:00:08.479Z,52.60
2022-07-30T02:01:00.356Z,52.60
2022-07-30T02:01:52.227Z,52.60
2022-07-30T02:02:44.004Z,52.70
2022-07-30T02:03:35.875Z,52.70
2022-07-30T02:04:27.699Z,52.70
2022-07-30T02:05:19.524Z,52.70
2022-07-30T02:06:11.369Z,52.70
2022-07-30T02:07:03.556Z,52.70
2022-07-30T02:07:55.055Z,52.70
2022-07-30T02:08:46.872Z,52.70
2022-07-30T02:09:38.716Z,52.60
2022-07-30T02:10:30.534Z,52.60
2022-07-30T02:11:22.399Z,52.60
2022-07-30T02:12:14.224Z,52.60
2022-07-30T02:13:06.072Z,52.60
2022-07-30T02:13:57.895Z,52.60
2022-07-30T02:14:49.739Z,52.70
2022-07-30T02:15:41.569Z,52.70
2022-07-30T02:16:33.495Z,52.70
2022-07-30T02:17:30.215Z,52.70
2022-07-30T02:18:17.114Z,52.60
2022-07-30T02:19:08.936Z,52.60
2022-07-30T02:20:00.710Z,52.50
2022-07-30T02:20:52.615Z,52.50
2022-07-30T02:21:50.432Z,52.50
2022-07-30T02:22:36.287Z,52.60
2022-07-30T02:23:28.141Z,52.60
2022-07-30T02:24:19.968Z,52.50
2022-07-30T02:25:11.830Z,52.40
2022-07-30T02:26:03.640Z,52.40
2022-07-30T02:26:55.493Z,52.40
2022-07-30T02:27:47.309Z,52.40
2022-07-30T02:28:39.166Z,52.40
2022-07-30T02:29:30.933Z,52.50
2022-07-30T02:30:22.835Z,52.50
2022-07-30T02:31:17.068Z,52.50
2022-07-30T02:32:06.507Z,52.50
2022-07-30T02:32:58.341Z,52.50
2022-07-30T02:33:50.202Z,52.50
2022-07-30T02:34:42.030Z,52.50
2022-07-30T02:35:33.869Z,52.50
2022-07-30T02:36:25.686Z,52.50
2022-07-30T02:37:17.542Z,52.50
2022-07-30T02:38:09.356Z,52.50
2022-07-30T02:39:01.119Z,52.40
2022-07-30T02:39:53.033Z,52.40
2022-07-30T02:40:44.893Z,52.50
2022-07-30T02:41:36.717Z,52.40
2022-07-30T02:42:28.582Z,52.40
2022-07-30T02:43:20.394Z,52.40
2022-07-30T02:44:12.238Z,52.40
2022-07-30T02:45:04.077Z,52.40
2022-07-30T02:45:55.914Z,52.40
2022-07-30T02:46:47.889Z,52.50
2022-07-30T02:47:39.597Z,52.40
2022-07-30T02:48:34.983Z,52.40
2022-07-30T02:49:23.286Z,52.40
2022-07-30T02:50:15.100Z,52.40
2022-07-30T02:51:06.952Z,52.40
2022-07-30T02:51:58.771Z,52.50
2022-07-30T02:52:50.621Z,52.40
2022-07-30T02:53:42.451Z,52.40
2022-07-30T02:54:34.295Z,52.40
2022-07-30T02:55:26.124Z,52.40
2022-07-30T02:56:17.966Z,52.40
2022-07-30T02:57:09.799Z,52.40
2022-07-30T02:58:01.573Z,52.30
2022-07-30T02:58:53.473Z,52.30
2022-07-30T02:59:45.329Z,52.50
2022-07-30T03:00:37.213Z,52.40
2022-07-30T03:01:28.989Z,52.40
2022-07-30T03:02:29.256Z,52.40
2022-07-30T03:03:12.677Z,52.40
2022-07-30T03:04:04.494Z,52.40
2022-07-30T03:04:56.326Z,52.40
2022-07-30T03:05:48.151Z,52.40
2022-07-30T03:06:40.009Z,52.40
2022-07-30T03:07:31.821Z,52.50
2022-07-30T03:08:23.680Z,52.40
2022-07-30T03:09:16.908Z,52.40
2022-07-30T03:10:07.360Z,52.40
2022-07-30T03:10:59.161Z,52.40
2022-07-30T03:11:50.944Z,52.30
2022-07-30T03:12:42.842Z,52.30
2022-07-30T03:13:34.682Z,52.30
2022-07-30T03:14:26.506Z,52.30
2022-07-30T03:15:18.363Z,52.40
2022-07-30T03:16:10.287Z,52.40
2022-07-30T03:17:02.594Z,52.40
2022-07-30T03:17:53.843Z,52.40
2022-07-30T03:18:45.696Z,52.40
2022-07-30T03:19:37.514Z,52.30
2022-07-30T03:20:29.366Z,52.30
2022-07-30T03:21:21.142Z,52.30
2022-07-30T03:22:13.028Z,52.40
2022-07-30T03:23:04.853Z,52.40
2022-07-30T03:23:56.701Z,52.40
2022-07-30T03:24:48.534Z,52.40
2022-07-30T03:25:40.365Z,52.40
2022-07-30T03:26:32.191Z,52.30
2022-07-30T03:27:24.031Z,52.40
2022-07-30T03:28:15.875Z,52.40
2022-07-30T03:29:07.707Z,52.30
2022-07-30T03:29:59.539Z,52.30
2022-07-30T03:30:51.313Z,52.30
2022-07-30T03:31:43.263Z,52.30
2022-07-30T03:32:35.046Z,52.30
2022-07-30T03:33:38.193Z,52.40
2022-07-30T03:34:18.712Z,52.40
2022-07-30T03:35:17.432Z,52.40
2022-07-30T03:36:02.402Z,52.50
2022-07-30T03:36:54.202Z,52.50
2022-07-30T03:37:46.042Z,52.50
2022-07-30T03:38:37.875Z,52.50
2022-07-30T03:39:29.710Z,52.40
2022-07-30T03:40:21.543Z,52.40
2022-07-30T03:41:13.385Z,52.30
2022-07-30T03:42:05.199Z,52.30
2022-07-30T03:42:57.051Z,52.30
2022-07-30T03:43:48.870Z,52.30
2022-07-30T03:44:40.723Z,52.30
2022-07-30T03:45:32.540Z,52.30
2022-07-30T03:46:24.435Z,52.30
2022-07-30T03:47:16.209Z,52.30
2022-07-30T03:48:08.055Z,52.30
2022-07-30T03:48:59.911Z,52.30
2022-07-30T03:49:51.721Z,52.30
2022-07-30T03:50:43.567Z,52.30
2022-07-30T03:51:35.395Z,52.30
2022-07-30T03:52:27.211Z,52.30
2022-07-30T03:53:19.050Z,52.20
2022-07-30T03:54:13.564Z,52.20
2022-07-30T03:55:02.683Z,52.20
2022-07-30T03:55:54.563Z,52.20
2022-07-30T03:56:46.409Z,52.20
2022-07-30T03:57:38.213Z,52.20
2022-07-30T03:58:35.746Z,52.20
2022-07-30T03:59:21.877Z,52.20
2022-07-30T04:00:13.725Z,52.20
2022-07-30T04:01:05.560Z,52.20
2022-07-30T04:01:57.467Z,52.20
2022-07-30T04:02:49.207Z,52.20
2022-07-30T04:03:41.015Z,52.20
2022-07-30T04:04:32.874Z,52.20
2022-07-30T04:05:24.727Z,52.20
2022-07-30T04:06:16.569Z,52.20
2022-07-30T04:07:08.381Z,52.20
2022-07-30T04:08:00.197Z,52.20
2022-07-30T04:08:52.049Z,52.30
2022-07-30T04:09:43.862Z,52.30
2022-07-30T04:10:35.712Z,52.30
2022-07-30T04:11:40.782Z,52.30
2022-07-30T04:12:19.358Z,52.30
2022-07-30T04:13:11.124Z,52.40
2022-07-30T04:14:02.936Z,52.30
2022-07-30T04:14:54.856Z,52.30
2022-07-30T04:16:05.058Z,52.30
2022-07-30T04:16:41.884Z,52.30
2022-07-30T04:17:30.403Z,52.30
2022-07-30T04:18:22.184Z,52.30
2022-07-30T04:19:14.020Z,52.30
2022-07-30T04:20:05.853Z,52.30
2022-07-30T04:20:57.689Z,52.30
2022-07-30T04:21:49.493Z,52.30
2022-07-30T04:22:41.241Z,52.30
2022-07-30T04:23:33.153Z,52.30
2022-07-30T04:24:25.007Z,52.30
2022-07-30T04:25:20.480Z,52.30
2022-07-30T04:26:08.673Z,52.30
2022-07-30T04:27:00.759Z,52.40
2022-07-30T04:28:02.985Z,52.40
2022-07-30T04:28:44.138Z,52.40
2022-07-30T04:29:35.992Z,52.40
2022-07-30T04:30:27.801Z,52.50
2022-07-30T04:31:19.690Z,52.40
2022-07-30T04:32:11.408Z,52.40
2022-07-30T04:33:03.298Z,52.40
2022-07-30T04:33:55.109Z,52.50
2022-07-30T04:34:46.955Z,52.50
2022-07-30T04:35:51.139Z,52.50
2022-07-30T04:36:30.639Z,52.50
2022-07-30T04:37:22.433Z,52.50
2022-07-30T04:38:14.276Z,52.50
2022-07-30T04:39:06.088Z,52.60
2022-07-30T04:39:57.956Z,52.60
2022-07-30T04:40:49.744Z,52.60
2022-07-30T04:41:48.549Z,52.60
2022-07-30T04:42:33.425Z,52.50
2022-07-30T04:43:25.247Z,52.50
2022-07-30T04:44:17.055Z,52.50
2022-07-30T04:45:08.899Z,52.50
2022-07-30T04:46:00.769Z,52.50
2022-07-30T04:46:52.608Z,52.50
2022-07-30T04:47:44.364Z,52.50
2022-07-30T04:48:36.211Z,52.50
2022-07-30T04:49:28.136Z,52.50
2022-07-30T04:50:19.860Z,52.50
2022-07-30T04:51:11.609Z,52.50
2022-07-30T04:52:03.526Z,52.60
2022-07-30T04:52:55.328Z,52.60
2022-07-30T04:53:47.169Z,52.60
2022-07-30T04:54:38.982Z,52.60
2022-07-30T04:55:30.824Z,52.60
2022-07-30T04:56:22.651Z,52.60
2022-07-30T04:57:14.481Z,52.60
2022-07-30T04:58:06.302Z,52.60
2022-07-30T04:58:58.145Z,52.50
2022-07-30T04:59:49.958Z,52.60
2022-07-30T05:00:41.820Z,52.60
2022-07-30T05:01:40.136Z,52.60
2022-07-30T05:02:25.463Z,52.50
2022-07-30T05:03:17.273Z,52.50
2022-07-30T05:04:09.125Z,52.50
2022-07-30T05:05:01.002Z,52.40
2022-07-30T05:05:57.126Z,52.50
2022-07-30T05:06:44.613Z,52.50
2022-07-30T05:07:36.446Z,52.50
2022-07-30T05:08:28.269Z,52.50
2022-07-30T05:09:20.104Z,52.60
2022-07-30T05:10:11.941Z,52.60
2022-07-30T05:11:03.783Z,52.50
2022-07-30T05:11:55.581Z,52.50
2022-07-30T05:12:47.418Z,52.60
2022-07-30T05:13:39.241Z,52.50
2022-07-30T05:14:31.011Z,52.50
2022-07-30T05:15:22.904Z,52.50
2022-07-30T05:16:14.805Z,52.50
2022-07-30T05:17:06.575Z,52.50
2022-07-30T05:17:58.407Z,52.50
2022-07-30T05:18:50.234Z,52.50
2022-07-30T05:19:42.083Z,52.50
2022-07-30T05:20:33.892Z,52.50
2022-07-30T05:21:25.744Z,52.50
2022-07-30T05:22:17.561Z,52.50
2022-07-30T05:23:09.421Z,52.50
2022-07-30T05:24:01.218Z,52.50
2022-07-30T05:24:53.070Z,52.50
2022-07-30T05:25:44.888Z,52.50
2022-07-30T05:26:36.741Z,52.50
2022-07-30T05:27:28.565Z,52.50
2022-07-30T05:28:20.396Z,52.50
2022-07-30T05:29:19.571Z,52.50
2022-07-30T05:30:04.003Z,52.50
2022-07-30T05:30:55.949Z,52.50
2022-07-30T05:31:47.742Z,52.50
2022-07-30T05:32:39.559Z,52.50
2022-07-30T05:33:41.008Z,52.40
2022-07-30T05:34:23.230Z,52.40
2022-07-30T05:35:15.075Z,52.30
2022-07-30T05:36:06.904Z,52.20
2022-07-30T05:36:58.977Z,52.20
2022-07-30T05:37:50.583Z,52.30
2022-07-30T05:38:42.435Z,52.30
2022-07-30T05:39:34.239Z,52.30
2022-07-30T05:40:26.088Z,52.30
2022-07-30T05:41:32.440Z,52.30
2022-07-30T05:42:09.763Z,52.30
2022-07-30T05:43:01.560Z,52.30
2022-07-30T05:43:56.073Z,52.40
2022-07-30T05:44:45.258Z,52.40
2022-07-30T05:45:37.107Z,52.50
2022-07-30T05:46:29.032Z,52.50
2022-07-30T05:47:20.776Z,52.50
2022-07-30T05:48:12.626Z,52.50
2022-07-30T05:49:04.525Z,52.60
2022-07-30T05:49:56.293Z,52.50
2022-07-30T05:50:48.126Z,52.50
2022-07-30T05:51:39.944Z,52.50
2022-07-30T05:52:31.745Z,52.50
2022-07-30T05:53:23.619Z,52.50
2022-07-30T05:54:15.479Z,52.60
2022-07-30T05:55:07.302Z,52.60
2022-07-30T05:55:59.154Z,52.60
2022-07-30T05:56:50.983Z,52.60
2022-07-30T05:57:42.835Z,52.50
2022-07-30T05:58:34.666Z,52.50
2022-07-30T05:59:26.525Z,52.50
2022-07-30T06:00:18.347Z,52.50
2022-07-30T06:01:10.254Z,52.40
2022-07-30T06:02:02.111Z,52.40
2022-07-30T06:02:53.881Z,52.30
2022-07-30T06:03:45.706Z,52.20
2022-07-30T06:04:37.601Z,52.30
2022-07-30T06:05:29.390Z,52.30
2022-07-30T06:06:23.363Z,52.20
2022-07-30T06:07:13.086Z,52.20
2022-07-30T06:08:04.956Z,52.30
2022-07-30T06:08:56.772Z,52.30
2022-07-30T06:09:48.626Z,52.30
2022-07-30T06:10:40.467Z,52.30
2022-07-30T06:11:32.317Z,52.30
2022-07-30T06:12:24.157Z,52.40
2022-07-30T06:13:16.016Z,52.30
2022-07-30T06:14:07.851Z,52.40
2022-07-30T06:14:59.709Z,52.30
2022-07-30T06:15:51.534Z,52.30
2022-07-30T06:16:43.397Z,52.30
2022-07-30T06:17:41.405Z,52.20
2022-07-30T06:18:27.099Z,52.20
2022-07-30T06:19:19.337Z,52.20
2022-07-30T06:20:10.795Z,52.20
2022-07-30T06:21:02.624Z,52.20
2022-07-30T06:22:05.847Z,52.20
2022-07-30T06:22:46.335Z,52.20
2022-07-30T06:23:38.213Z,52.20
2022-07-30T06:24:30.034Z,52.20
2022-07-30T06:25:21.904Z,52.20
2022-07-30T06:26:13.735Z,52.20
2022-07-30T06:27:05.589Z,52.20
2022-07-30T06:27:57.437Z,52.30
2022-07-30T06:28:49.301Z,52.30
2022-07-30T06:29:41.095Z,52.20
2022-07-30T06:30:33.072Z,52.20
2022-07-30T06:31:24.863Z,52.10
2022-07-30T06:32:16.701Z,52.00
2022-07-30T06:33:08.562Z,51.90
2022-07-30T06:34:00.409Z,51.90
2022-07-30T06:35:01.061Z,52.00
2022-07-30T06:35:44.130Z,51.80
2022-07-30T06:36:35.961Z,51.80
2022-07-30T06:38:05.702Z,51.80
2022-07-30T06:38:19.678Z,51.80
2022-07-30T06:39:11.488Z,51.90
2022-07-30T06:40:03.395Z,51.90
2022-07-30T06:40:59.208Z,51.90
2022-07-30T06:41:47.110Z,51.80
2022-07-30T06:42:38.991Z,51.80
2022-07-30T06:43:30.860Z,51.80
2022-07-30T06:44:22.701Z,51.70
2022-07-30T06:45:14.549Z,51.60
2022-07-30T06:46:06.512Z,51.70
2022-07-30T06:46:59.521Z,51.60
2022-07-30T06:47:50.133Z,51.80
2022-07-30T06:48:41.975Z,51.80
2022-07-30T06:49:33.851Z,51.80
2022-07-30T06:50:25.698Z,51.80
2022-07-30T06:51:17.565Z,51.70
2022-07-30T06:52:09.423Z,51.60
2022-07-30T06:53:01.204Z,51.60
2022-07-30T06:53:53.151Z,51.60
2022-07-30T06:54:45.023Z,51.60
2022-07-30T06:55:36.865Z,51.40
2022-07-30T06:56:28.731Z,51.70
2022-07-30T06:57:20.576Z,51.60
2022-07-30T06:58:12.458Z,51.50
2022-07-30T06:59:04.311Z,51.50
2022-07-30T06:59:57.629Z,51.50
2022-07-30T07:00:48.037Z,51.50
2022-07-30T07:01:39.949Z,51.60
2022-07-30T07:02:31.691Z,51.60
2022-07-30T07:03:23.626Z,51.70
2022-07-30T07:04:15.539Z,51.60
2022-07-30T07:05:07.435Z,51.60
2022-07-30T07:05:59.215Z,51.60
2022-07-30T07:06:51.085Z,51.70
2022-07-30T07:07:52.258Z,51.70
2022-07-30T07:08:34.799Z,51.60
2022-07-30T07:09:26.670Z,51.50
2022-07-30T07:10:18.560Z,51.60
2022-07-30T07:11:10.395Z,51.60
2022-07-30T07:12:02.272Z,51.60
2022-07-30T07:12:54.126Z,51.70
2022-07-30T07:13:46.009Z,51.60
2022-07-30T07:14:37.860Z,51.60
2022-07-30T07:15:36.693Z,51.50
2022-07-30T07:16:21.564Z,51.50
2022-07-30T07:17:13.516Z,51.50
2022-07-30T07:18:05.328Z,51.40
2022-07-30T07:18:57.209Z,51.50
2022-07-30T07:20:01.720Z,51.40
2022-07-30T07:20:40.926Z,51.30
2022-07-30T07:21:32.788Z,51.30
2022-07-30T07:22:24.673Z,51.30
2022-07-30T07:23:16.532Z,51.30
2022-07-30T07:24:08.409Z,51.30
2022-07-30T07:25:00.257Z,51.30
2022-07-30T07:25:52.144Z,51.30
2022-07-30T07:26:43.997Z,51.30
2022-07-30T07:27:35.883Z,51.20
2022-07-30T07:28:33.214Z,51.20
2022-07-30T07:29:19.619Z,51.30
2022-07-30T07:30:11.412Z,51.30
2022-07-30T07:31:03.475Z,51.30
2022-07-30T07:32:06.961Z,51.30
2022-07-30T07:32:47.184Z,51.60
2022-07-30T07:33:38.967Z,51.40
2022-07-30T07:34:30.846Z,51.40
2022-07-30T07:35:22.695Z,51.40
2022-07-30T07:36:14.578Z,51.40
2022-07-30T07:37:06.430Z,51.40
2022-07-30T07:37:58.318Z,51.30
2022-07-30T07:38:50.187Z,51.40
2022-07-30T07:39:42.440Z,51.30
2022-07-30T07:40:33.945Z,51.30
2022-07-30T07:41:25.788Z,51.40
2022-07-30T07:42:17.654Z,51.30
2022-07-30T07:43:09.530Z,51.40
2022-07-30T07:44:01.322Z,51.30
2022-07-30T07:44:53.285Z,51.30
2022-07-30T07:45:45.198Z,51.30
2022-07-30T07:46:37.071Z,51.30
2022-07-30T07:47:28.881Z,51.30
2022-07-30T07:48:20.764Z,51.40
2022-07-30T07:49:12.707Z,51.40
2022-07-30T07:50:04.520Z,51.40
2022-07-30T07:51:00.076Z,51.40
2022-07-30T07:51:48.790Z,51.40
2022-07-30T07:52:40.103Z,51.40
2022-07-30T07:53:31.951Z,51.30
2022-07-30T07:54:23.866Z,51.40
2022-07-30T07:55:15.734Z,51.30
2022-07-30T07:56:07.609Z,51.20
2022-07-30T07:57:00.797Z,51.30
2022-07-30T07:57:51.274Z,51.30
2022-07-30T07:58:43.215Z,51.20
2022-07-30T07:59:39.744Z,51.30
2022-07-30T08:00:26.963Z,51.40
2022-07-30T08:01:18.843Z,51.30
2022-07-30T08:02:10.788Z,51.30
2022-07-30T08:03:02.570Z,51.30
2022-07-30T08:03:54.442Z,51.30
2022-07-30T08:04:46.321Z,51.30
2022-07-30T08:05:56.819Z,51.30
2022-07-30T08:06:30.050Z,51.30
2022-07-30T08:07:21.932Z,51.30
2022-07-30T08:08:13.785Z,51.30
2022-07-30T08:09:05.681Z,51.20
2022-07-30T08:09:57.540Z,51.30
2022-07-30T08:10:49.420Z,51.30
2022-07-30T08:11:41.280Z,51.40
2022-07-30T08:12:33.171Z,51.20
2022-07-30T08:13:51.737Z,51.20
2022-07-30T08:14:16.927Z,51.30
2022-07-30T08:15:08.779Z,51.30
2022-07-30T08:16:00.654Z,51.30
2022-07-30T08:16:52.575Z,51.30
2022-07-30T08:17:44.408Z,51.20
2022-07-30T08:18:36.266Z,51.20
2022-07-30T08:19:28.154Z,51.20
2022-07-30T08:20:20.004Z,51.20
2022-07-30T08:21:11.815Z,51.10
2022-07-30T08:22:03.762Z,51.10
2022-07-30T08:22:55.642Z,51.10
2022-07-30T08:23:47.509Z,51.10
2022-07-30T08:24:39.394Z,51.10
2022-07-30T08:25:31.258Z,51.10
2022-07-30T08:26:23.139Z,51.10
2022-07-30T08:27:15.076Z,51.10
2022-07-30T08:28:06.911Z,51.10
2022-07-30T08:28:58.760Z,51.10
2022-07-30T08:29:50.646Z,51.10
2022-07-30T08:30:42.514Z,51.00
2022-07-30T08:31:34.412Z,50.90
2022-07-30T08:32:26.259Z,51.00
2022-07-30T08:33:18.148Z,51.10
2022-07-30T08:34:10.014Z,51.10
2022-07-30T08:35:01.836Z,51.10
2022-07-30T08:36:02.878Z,51.00
2022-07-30T08:36:45.655Z,51.00
2022-07-30T08:37:37.557Z,51.00
2022-07-30T08:38:29.403Z,51.10
2022-07-30T08:39:21.266Z,51.10
2022-07-30T08:40:13.178Z,51.10
2022-07-30T08:41:05.020Z,51.10
2022-07-30T08:41:56.915Z,51.10
2022-07-30T08:42:48.777Z,51.10
2022-07-30T08:43:40.660Z,51.10
2022-07-30T08:44:32.528Z,51.10
2022-07-30T08:45:34.745Z,51.10
2022-07-30T08:46:16.291Z,51.10
2022-07-30T08:47:08.187Z,51.10
2022-07-30T08:48:00.058Z,51.10
2022-07-30T08:48:51.935Z,51.10
2022-07-30T08:49:43.791Z,51.20
2022-07-30T08:50:35.702Z,51.10
2022-07-30T08:51:27.557Z,51.20
2022-07-30T08:52:19.443Z,51.10
2022-07-30T08:53:11.324Z,51.10
2022-07-30T08:54:03.199Z,51.20
2022-07-30T08:54:55.063Z,51.20
2022-07-30T08:55:46.948Z,51.30
2022-07-30T08:56:38.817Z,51.30
2022-07-30T08:57:30.704Z,51.30
2022-07-30T08:58:22.608Z,51.30
2022-07-30T08:59:14.472Z,51.30
2022-07-30T09:00:06.331Z,51.40
2022-07-30T09:00:58.230Z,51.30
2022-07-30T09:01:50.087Z,51.30
2022-07-30T09:02:41.883Z,51.40
2022-07-30T09:03:33.843Z,51.40
2022-07-30T09:04:25.724Z,51.40
2022-07-30T09:05:17.594Z,51.40
2022-07-30T09:06:09.485Z,51.40
2022-07-30T09:07:01.611Z,51.40
2022-07-30T09:07:53.239Z,51.50
2022-07-30T09:08:45.108Z,51.40
2022-07-30T09:09:37.003Z,51.50
2022-07-30T09:10:28.868Z,51.40
2022-07-30T09:11:20.766Z,51.50
2022-07-30T09:12:12.616Z,51.40
2022-07-30T09:13:04.512Z,51.60
2022-07-30T09:13:56.372Z,51.40
2022-07-30T09:14:48.264Z,51.50
2022-07-30T09:15:40.128Z,51.50
2022-07-30T09:16:31.944Z,51.60
2022-07-30T09:17:23.879Z,51.50
2022-07-30T09:18:15.772Z,51.50
2022-07-30T09:19:07.633Z,51.60
2022-07-30T09:19:59.527Z,51.60
2022-07-30T09:20:51.360Z,51.60
2022-07-30T09:21:43.293Z,51.50
2022-07-30T09:22:35.146Z,51.50
2022-07-30T09:23:27.046Z,51.60
2022-07-30T09:24:18.894Z,51.60
2022-07-30T09:25:10.786Z,51.40
2022-07-30T09:26:02.662Z,51.50
2022-07-30T09:26:54.559Z,51.60
2022-07-30T09:27:46.419Z,51.60
2022-07-30T09:28:38.318Z,51.40
2022-07-30T09:29:30.174Z,51.60
2022-07-30T09:30:22.001Z,51.40
2022-07-30T09:31:13.927Z,51.60
2022-07-30T09:32:06.103Z,51.60
2022-07-30T09:32:57.680Z,51.60
2022-07-30T09:33:49.580Z,51.60
2022-07-30T09:34:41.415Z,51.60
2022-07-30T09:35:33.339Z,51.60
2022-07-30T09:36:25.208Z,51.60
2022-07-30T09:37:17.130Z,51.50
2022-07-30T09:38:08.972Z,51.60
2022-07-30T09:39:00.848Z,51.60
2022-07-30T09:39:59.319Z,51.60
2022-07-30T09:40:44.613Z,51.50
2022-07-30T09:41:38.820Z,51.60
2022-07-30T09:42:28.362Z,51.60
2022-07-30T09:43:23.266Z,51.60
2022-07-30T09:44:12.122Z,51.60
2022-07-30T09:45:03.952Z,51.60
2022-07-30T09:45:57.184Z,51.60
2022-07-30T09:46:48.187Z,51.60
2022-07-30T09:47:39.626Z,51.60
2022-07-30T09:48:31.430Z,51.70
2022-07-30T09:49:23.517Z,51.70
2022-07-30T09:50:29.238Z,51.80
2022-07-30T09:51:07.139Z,51.60
2022-07-30T09:51:59.005Z,51.70
2022-07-30T09:52:50.910Z,51.60
2022-07-30T09:53:42.864Z,51.60
2022-07-30T09:54:34.661Z,51.70
2022-07-30T09:55:26.519Z,51.70
2022-07-30T09:56:18.435Z,51.70
2022-07-30T09:57:26.576Z,51.60
2022-07-30T09:58:02.172Z,51.80
2022-07-30T09:58:54.063Z,51.80
2022-07-30T09:59:45.928Z,51.70
2022-07-30T10:00:37.816Z,51.70
2022-07-30T10:01:49.899Z,51.80
2022-07-30T10:02:21.491Z,51.80
2022-07-30T10:03:21.599Z,51.80
2022-07-30T10:04:05.325Z,51.80
2022-07-30T10:04:57.209Z,51.80
2022-07-30T10:05:49.090Z,51.80
2022-07-30T10:06:41.802Z,51.90
2022-07-30T10:07:32.821Z,51.80
2022-07-30T10:08:24.727Z,51.90
2022-07-30T10:09:16.622Z,51.90
2022-07-30T10:10:08.484Z,52.00
2022-07-30T10:11:00.339Z,52.00
2022-07-30T10:11:52.175Z,51.90
2022-07-30T10:12:44.108Z,51.90
2022-07-30T10:13:35.992Z,51.90
2022-07-30T10:14:30.859Z,51.80
2022-07-30T10:15:19.748Z,51.80
2022-07-30T10:16:11.599Z,51.80
2022-07-30T10:17:03.494Z,51.80
2022-07-30T10:17:55.378Z,51.70
2022-07-30T10:18:47.274Z,51.80
2022-07-30T10:19:40.058Z,51.70
2022-07-30T10:20:31.036Z,51.70
2022-07-30T10:21:22.893Z,51.70
2022-07-30T10:22:14.817Z,51.80
2022-07-30T10:23:07.975Z,51.80
2022-07-30T10:23:58.552Z,51.80
2022-07-30T10:24:50.424Z,51.80
2022-07-30T10:25:48.909Z,51.90
2022-07-30T10:26:34.191Z,51.90
2022-07-30T10:27:26.067Z,52.00
2022-07-30T10:28:17.942Z,52.00
2022-07-30T10:29:12.977Z,51.90
2022-07-30T10:30:04.080Z,52.00
2022-07-30T10:30:53.621Z,51.90
2022-07-30T10:31:49.300Z,52.00
2022-07-30T10:32:37.349Z,51.90
2022-07-30T10:33:36.395Z,51.90
2022-07-30T10:34:23.744Z,51.80
2022-07-30T10:35:12.977Z,51.90
2022-07-30T10:36:04.877Z,51.90
2022-07-30T10:36:56.732Z,51.90
2022-07-30T10:37:48.623Z,51.90
2022-07-30T10:38:41.635Z,52.00
2022-07-30T10:39:34.646Z,51.90
2022-07-30T10:40:27.835Z,51.90
2022-07-30T10:41:16.148Z,51.90
2022-07-30T10:42:08.013Z,51.90
2022-07-30T10:43:00.866Z,51.90
2022-07-30T10:43:51.715Z,51.80
2022-07-30T10:44:43.675Z,51.80
2022-07-30T10:45:35.575Z,51.80
2022-07-30T10:46:27.440Z,51.80
2022-07-30T10:47:19.304Z,51.80
2022-07-30T10:48:11.196Z,52.00
2022-07-30T10:49:03.134Z,51.90
2022-07-30T10:49:54.954Z,51.80
2022-07-30T10:50:46.829Z,51.80
2022-07-30T10:51:38.722Z,51.70
2022-07-30T10:52:30.595Z,51.80
2022-07-30T10:53:26.923Z,51.70
2022-07-30T10:54:14.356Z,51.80
2022-07-30T10:55:06.253Z,51.80
2022-07-30T10:55:58.117Z,51.90
2022-07-30T10:56:50.023Z,51.80
2022-07-30T10:57:41.831Z,51.80
2022-07-30T10:58:33.798Z,51.80
2022-07-30T10:59:28.959Z,51.80
2022-07-30T11:00:17.776Z,51.90
2022-07-30T11:01:17.968Z,51.90
2022-07-30T11:02:01.654Z,51.80
2022-07-30T11:02:53.170Z,51.80
2022-07-30T11:03:45.316Z,51.70
2022-07-30T11:04:36.928Z,51.80
2022-07-30T11:05:44.839Z,51.70
2022-07-30T11:06:24.561Z,51.80
2022-07-30T11:07:15.778Z,51.70